EBOS/OST METAR and TAF weather

Enter ICAO airport designator
Station Type Date Time Source
EBOS METAR 2018/01/19 17:20 UTC NOAA

EBOS 191720Z 27018KT 9999 FEW025 SCT040 05/M01 Q1009 TEMPO 28020G30KT


Station Type Date Time Source
EBOS Decoded METAR 2018/01/19 17:20 UTC NOAA

Oostende Airport , Belgium (EBOS) 51-12N 002-52E 5M
Jan 19, 2018 - 12:20 PM EST / 2018.01.19 1720 UTC
Wind: from the W (270 degrees) at 21 MPH (18 KT):0
Visibility: greater than 7 mile(s):0
Sky conditions: partly cloudy
Temperature: 41 F (5 C)
Dew Point: 30 F (-1 C)
Relative Humidity: 65%
Pressure (altimeter): 29.80 in. Hg (1009 hPa)
ob: EBOS 191720Z 27018KT 9999 FEW025 SCT040 05/M01 Q1009 TEMPO 28020G30KT
cycle: 17

Station Type Date Time Source
EBOS TAF 2018/01/19 18:27 UTC NOAA

TAF EBOS 191720Z 1918/2024 24013KT 9999 FEW024
TEMPO 1918/1923 27018G32KT PROB30
TEMPO 1919/1921 4500 SHRA BKN014CB
BECMG 2006/2008 18008KT
BECMG 2007/2009 BKN014 PROB40
TEMPO 2009/2019 3800 RA RADZ BKN005
BECMG 2018/2020 SCT018
BECMG 2021/2023 33010KT


Example: see airport list